sensor_id;sensor_type;location;lat;lon;timestamp;temperature;humidity
41592;DHT22;28026;48.562;14.440;2023-03-08T00:02:20;1.20;99.90
41592;DHT22;28026;48.562;14.440;2023-03-08T00:04:54;1.10;99.90
41592;DHT22;28026;48.562;14.440;2023-03-08T00:07:25;1.10;99.90
41592;DHT22;28026;48.562;14.440;2023-03-08T00:09:56;0.90;99.90
41592;DHT22;28026;48.562;14.440;2023-03-08T00:12:28;0.80;99.90
41592;DHT22;28026;48.562;14.440;2023-03-08T00:14:58;0.70;99.90
41592;DHT22;28026;48.562;14.440;2023-03-08T00:17:29;0.70;99.90
41592;DHT22;28026;48.562;14.440;2023-03-08T00:20:00;0.90;99.90
41592;DHT22;28026;48.562;14.440;2023-03-08T00:22:35;0.70;99.90
41592;DHT22;28026;48.562;14.440;2023-03-08T00:25:10;0.80;99.90
41592;DHT22;28026;48.562;14.440;2023-03-08T00:27:42;0.80;99.90
41592;DHT22;28026;48.562;14.440;2023-03-08T00:30:13;0.90;99.90
41592;DHT22;28026;48.562;14.440;2023-03-08T00:32:47;0.90;99.90
41592;DHT22;28026;48.562;14.440;2023-03-08T00:35:17;1.00;99.90
41592;DHT22;28026;48.562;14.440;2023-03-08T00:37:51;0.80;99.90
41592;DHT22;28026;48.562;14.440;2023-03-08T00:40:22;0.80;99.90
41592;DHT22;28026;48.562;14.440;2023-03-08T00:42:53;0.70;99.90
41592;DHT22;28026;48.562;14.440;2023-03-08T00:45:24;0.50;99.90
41592;DHT22;28026;48.562;14.440;2023-03-08T00:47:55;0.60;99.90
41592;DHT22;28026;48.562;14.440;2023-03-08T00:50:25;0.60;99.90
41592;DHT22;28026;48.562;14.440;2023-03-08T00:52:56;0.50;99.90
41592;DHT22;28026;48.562;14.440;2023-03-08T00:55:27;0.60;99.90
41592;DHT22;28026;48.562;14.440;2023-03-08T00:57:58;0.70;99.90
41592;DHT22;28026;48.562;14.440;2023-03-08T01:00:29;0.80;99.90
41592;DHT22;28026;48.562;14.440;2023-03-08T01:03:01;0.80;99.90
41592;DHT22;28026;48.562;14.440;2023-03-08T01:05:31;0.60;99.90
41592;DHT22;28026;48.562;14.440;2023-03-08T01:08:02;0.80;99.90
41592;DHT22;28026;48.562;14.440;2023-03-08T01:10:35;0.60;99.90
41592;DHT22;28026;48.562;14.440;2023-03-08T01:13:07;0.60;99.90
41592;DHT22;28026;48.562;14.440;2023-03-08T01:15:38;0.60;99.90
41592;DHT22;28026;48.562;14.440;2023-03-08T01:18:09;0.60;99.90
41592;DHT22;28026;48.562;14.440;2023-03-08T01:20:40;0.50;99.90
41592;DHT22;28026;48.562;14.440;2023-03-08T01:23:12;0.50;99.90
41592;DHT22;28026;48.562;14.440;2023-03-08T01:25:43;0.50;99.90
41592;DHT22;28026;48.562;14.440;2023-03-08T01:28:14;0.40;99.90
41592;DHT22;28026;48.562;14.440;2023-03-08T01:30:44;0.30;99.90
41592;DHT22;28026;48.562;14.440;2023-03-08T01:33:15;0.10;99.90
41592;DHT22;28026;48.562;14.440;2023-03-08T01:35:47;0.10;99.90
41592;DHT22;28026;48.562;14.440;2023-03-08T01:38:18;0.10;99.90
41592;DHT22;28026;48.562;14.440;2023-03-08T01:40:48;0.00;99.90
41592;DHT22;28026;48.562;14.440;2023-03-08T01:43:30;0.00;99.90
41592;DHT22;28026;48.562;14.440;2023-03-08T01:46:14;-0.10;99.90
41592;DHT22;28026;48.562;14.440;2023-03-08T01:52:06;0.10;99.90
41592;DHT22;28026;48.562;14.440;2023-03-08T01:54:56;-0.10;99.90
41592;DHT22;28026;48.562;14.440;2023-03-08T01:57:44;-0.10;99.90
41592;DHT22;28026;48.562;14.440;2023-03-08T02:00:24;-0.20;99.90
41592;DHT22;28026;48.562;14.440;2023-03-08T02:03:03;-0.20;99.90
41592;DHT22;28026;48.562;14.440;2023-03-08T02:05:42;-0.40;99.90
41592;DHT22;28026;48.562;14.440;2023-03-08T02:08:13;-0.40;99.90
41592;DHT22;28026;48.562;14.440;2023-03-08T02:10:44;-0.20;99.90
41592;DHT22;28026;48.562;14.440;2023-03-08T02:13:16;-0.20;99.90
41592;DHT22;28026;48.562;14.440;2023-03-08T02:15:50;-0.30;99.90
41592;DHT22;28026;48.562;14.440;2023-03-08T02:18:26;-0.20;99.90
41592;DHT22;28026;48.562;14.440;2023-03-08T02:20:57;-0.20;99.90
41592;DHT22;28026;48.562;14.440;2023-03-08T02:23:27;0.00;99.90
41592;DHT22;28026;48.562;14.440;2023-03-08T02:26:02;0.10;99.90
41592;DHT22;28026;48.562;14.440;2023-03-08T02:28:34;0.20;99.90
41592;DHT22;28026;48.562;14.440;2023-03-08T02:31:05;0.20;99.90
41592;DHT22;28026;48.562;14.440;2023-03-08T02:33:36;0.20;99.90
41592;DHT22;28026;48.562;14.440;2023-03-08T02:36:08;0.20;99.90
41592;DHT22;28026;48.562;14.440;2023-03-08T02:38:39;0.20;99.90
41592;DHT22;28026;48.562;14.440;2023-03-08T02:41:10;0.10;99.90
41592;DHT22;28026;48.562;14.440;2023-03-08T02:43:41;0.20;99.90
41592;DHT22;28026;48.562;14.440;2023-03-08T02:46:12;0.20;99.90
41592;DHT22;28026;48.562;14.440;2023-03-08T02:48:44;0.10;99.90
41592;DHT22;28026;48.562;14.440;2023-03-08T02:51:15;0.10;99.90
41592;DHT22;28026;48.562;14.440;2023-03-08T02:53:46;0.20;99.90
41592;DHT22;28026;48.562;14.440;2023-03-08T02:56:17;0.20;99.90
41592;DHT22;28026;48.562;14.440;2023-03-08T02:58:48;0.40;99.90
41592;DHT22;28026;48.562;14.440;2023-03-08T03:01:19;0.30;99.90
41592;DHT22;28026;48.562;14.440;2023-03-08T03:03:52;0.50;99.90
41592;DHT22;28026;48.562;14.440;2023-03-08T03:06:24;0.70;99.90
41592;DHT22;28026;48.562;14.440;2023-03-08T03:08:55;0.70;99.90
41592;DHT22;28026;48.562;14.440;2023-03-08T03:11:26;0.70;99.90
41592;DHT22;28026;48.562;14.440;2023-03-08T03:13:58;0.70;99.90
41592;DHT22;28026;48.562;14.440;2023-03-08T03:16:30;0.70;99.90
41592;DHT22;28026;48.562;14.440;2023-03-08T03:19:02;0.80;99.90
41592;DHT22;28026;48.562;14.440;2023-03-08T03:21:34;0.80;99.90
41592;DHT22;28026;48.562;14.440;2023-03-08T03:24:05;0.80;99.90
41592;DHT22;28026;48.562;14.440;2023-03-08T03:26:37;0.80;99.90
41592;DHT22;28026;48.562;14.440;2023-03-08T03:29:08;0.70;99.90
41592;DHT22;28026;48.562;14.440;2023-03-08T03:31:39;0.70;99.90
41592;DHT22;28026;48.562;14.440;2023-03-08T03:34:10;0.80;99.90
41592;DHT22;28026;48.562;14.440;2023-03-08T03:36:41;0.90;99.90
41592;DHT22;28026;48.562;14.440;2023-03-08T03:39:12;0.80;99.90
41592;DHT22;28026;48.562;14.440;2023-03-08T03:41:43;0.80;99.90
41592;DHT22;28026;48.562;14.440;2023-03-08T03:44:14;0.80;99.90
41592;DHT22;28026;48.562;14.440;2023-03-08T03:46:44;0.80;99.90
41592;DHT22;28026;48.562;14.440;2023-03-08T03:49:15;0.80;99.90
41592;DHT22;28026;48.562;14.440;2023-03-08T03:51:46;0.70;99.90
41592;DHT22;28026;48.562;14.440;2023-03-08T03:54:17;0.70;99.90
41592;DHT22;28026;48.562;14.440;2023-03-08T03:56:48;0.80;99.90
41592;DHT22;28026;48.562;14.440;2023-03-08T03:59:19;0.90;99.90
41592;DHT22;28026;48.562;14.440;2023-03-08T04:01:50;0.90;99.90
41592;DHT22;28026;48.562;14.440;2023-03-08T04:04:21;0.90;99.90
41592;DHT22;28026;48.562;14.440;2023-03-08T04:06:52;0.90;99.90
41592;DHT22;28026;48.562;14.440;2023-03-08T04:09:22;0.90;99.90
41592;DHT22;28026;48.562;14.440;2023-03-08T04:11:53;0.90;99.90
41592;DHT22;28026;48.562;14.440;2023-03-08T04:14:24;0.90;99.90
41592;DHT22;28026;48.562;14.440;2023-03-08T04:16:55;1.00;99.90
41592;DHT22;28026;48.562;14.440;2023-03-08T04:19:26;0.90;99.90
41592;DHT22;28026;48.562;14.440;2023-03-08T04:21:57;0.90;99.90
41592;DHT22;28026;48.562;14.440;2023-03-08T04:24:28;0.80;99.90
41592;DHT22;28026;48.562;14.440;2023-03-08T04:26:59;0.70;99.90
41592;DHT22;28026;48.562;14.440;2023-03-08T04:29:30;0.70;99.90
41592;DHT22;28026;48.562;14.440;2023-03-08T04:32:01;0.70;99.90
41592;DHT22;28026;48.562;14.440;2023-03-08T04:34:32;0.60;99.90
41592;DHT22;28026;48.562;14.440;2023-03-08T04:37:02;0.60;99.90
41592;DHT22;28026;48.562;14.440;2023-03-08T04:39:33;0.50;99.90
41592;DHT22;28026;48.562;14.440;2023-03-08T04:42:05;0.50;99.90
41592;DHT22;28026;48.562;14.440;2023-03-08T04:44:36;0.50;99.90
41592;DHT22;28026;48.562;14.440;2023-03-08T04:47:08;0.60;99.90
41592;DHT22;28026;48.562;14.440;2023-03-08T04:49:39;0.70;99.90
41592;DHT22;28026;48.562;14.440;2023-03-08T04:52:10;0.70;99.90
41592;DHT22;28026;48.562;14.440;2023-03-08T04:54:41;0.60;99.90
41592;DHT22;28026;48.562;14.440;2023-03-08T04:57:12;0.60;99.90
41592;DHT22;28026;48.562;14.440;2023-03-08T04:59:44;0.60;99.90
41592;DHT22;28026;48.562;14.440;2023-03-08T05:02:14;0.60;99.90
41592;DHT22;28026;48.562;14.440;2023-03-08T05:04:45;0.60;99.90
41592;DHT22;28026;48.562;14.440;2023-03-08T05:07:16;0.60;99.90
41592;DHT22;28026;48.562;14.440;2023-03-08T05:09:47;0.50;99.90
41592;DHT22;28026;48.562;14.440;2023-03-08T05:12:18;0.40;99.90
41592;DHT22;28026;48.562;14.440;2023-03-08T05:14:49;0.20;99.90
41592;DHT22;28026;48.562;14.440;2023-03-08T05:17:20;0.10;99.90
41592;DHT22;28026;48.562;14.440;2023-03-08T05:19:51;0.10;99.90
41592;DHT22;28026;48.562;14.440;2023-03-08T05:22:22;0.10;99.90
41592;DHT22;28026;48.562;14.440;2023-03-08T05:24:52;-0.10;99.90
41592;DHT22;28026;48.562;14.440;2023-03-08T05:27:23;0.00;99.90
41592;DHT22;28026;48.562;14.440;2023-03-08T05:29:54;0.10;99.90
41592;DHT22;28026;48.562;14.440;2023-03-08T05:32:25;0.00;99.90
41592;DHT22;28026;48.562;14.440;2023-03-08T05:34:56;0.00;99.90
41592;DHT22;28026;48.562;14.440;2023-03-08T05:37:27;0.00;99.90
41592;DHT22;28026;48.562;14.440;2023-03-08T05:39:58;0.00;99.90
41592;DHT22;28026;48.562;14.440;2023-03-08T05:42:30;0.00;99.90
41592;DHT22;28026;48.562;14.440;2023-03-08T05:45:02;0.00;99.90
41592;DHT22;28026;48.562;14.440;2023-03-08T05:47:34;-0.20;99.90
41592;DHT22;28026;48.562;14.440;2023-03-08T05:50:05;-0.10;99.90
41592;DHT22;28026;48.562;14.440;2023-03-08T05:52:37;-0.20;99.90
41592;DHT22;28026;48.562;14.440;2023-03-08T05:55:08;-0.10;99.90
41592;DHT22;28026;48.562;14.440;2023-03-08T05:57:39;-0.20;99.90
41592;DHT22;28026;48.562;14.440;2023-03-08T06:00:10;-0.20;99.90
41592;DHT22;28026;48.562;14.440;2023-03-08T06:02:42;-0.20;99.90
41592;DHT22;28026;48.562;14.440;2023-03-08T06:05:13;-0.30;99.90
41592;DHT22;28026;48.562;14.440;2023-03-08T06:07:44;-0.20;99.90
41592;DHT22;28026;48.562;14.440;2023-03-08T06:10:16;-0.10;99.90
41592;DHT22;28026;48.562;14.440;2023-03-08T06:12:47;-0.10;99.90
41592;DHT22;28026;48.562;14.440;2023-03-08T06:15:18;0.00;99.90
41592;DHT22;28026;48.562;14.440;2023-03-08T06:17:52;0.00;99.90
41592;DHT22;28026;48.562;14.440;2023-03-08T06:20:23;0.10;99.90
41592;DHT22;28026;48.562;14.440;2023-03-08T06:22:54;0.30;99.90
41592;DHT22;28026;48.562;14.440;2023-03-08T06:25:25;0.50;99.90
41592;DHT22;28026;48.562;14.440;2023-03-08T06:27:56;0.70;99.90
41592;DHT22;28026;48.562;14.440;2023-03-08T06:30:26;0.70;99.90
41592;DHT22;28026;48.562;14.440;2023-03-08T06:32:57;0.80;99.90
41592;DHT22;28026;48.562;14.440;2023-03-08T06:35:28;0.90;99.90
41592;DHT22;28026;48.562;14.440;2023-03-08T06:37:59;0.90;99.90
41592;DHT22;28026;48.562;14.440;2023-03-08T06:40:30;1.00;99.90
41592;DHT22;28026;48.562;14.440;2023-03-08T06:43:01;1.00;99.90
41592;DHT22;28026;48.562;14.440;2023-03-08T06:45:32;1.20;99.90
41592;DHT22;28026;48.562;14.440;2023-03-08T06:48:03;1.40;99.90
41592;DHT22;28026;48.562;14.440;2023-03-08T06:50:35;1.50;99.90
41592;DHT22;28026;48.562;14.440;2023-03-08T06:53:06;2.00;99.90
41592;DHT22;28026;48.562;14.440;2023-03-08T06:55:39;2.10;99.90
41592;DHT22;28026;48.562;14.440;2023-03-08T06:58:11;2.30;99.90
41592;DHT22;28026;48.562;14.440;2023-03-08T07:00:42;2.20;99.90
41592;DHT22;28026;48.562;14.440;2023-03-08T07:03:13;2.40;99.90
41592;DHT22;28026;48.562;14.440;2023-03-08T07:05:44;2.70;99.90
41592;DHT22;28026;48.562;14.440;2023-03-08T07:08:15;2.80;99.90
41592;DHT22;28026;48.562;14.440;2023-03-08T07:10:46;2.90;99.90
41592;DHT22;28026;48.562;14.440;2023-03-08T07:13:17;2.60;99.90
41592;DHT22;28026;48.562;14.440;2023-03-08T07:15:48;2.60;99.90
41592;DHT22;28026;48.562;14.440;2023-03-08T07:18:20;2.70;99.90
41592;DHT22;28026;48.562;14.440;2023-03-08T07:20:55;2.70;99.90
41592;DHT22;28026;48.562;14.440;2023-03-08T07:23:27;2.80;99.90
41592;DHT22;28026;48.562;14.440;2023-03-08T07:25:58;2.90;99.90
41592;DHT22;28026;48.562;14.440;2023-03-08T07:28:29;2.70;99.90
41592;DHT22;28026;48.562;14.440;2023-03-08T07:31:00;2.90;99.90
41592;DHT22;28026;48.562;14.440;2023-03-08T07:33:31;3.10;99.90
41592;DHT22;28026;48.562;14.440;2023-03-08T07:36:02;3.20;99.90
41592;DHT22;28026;48.562;14.440;2023-03-08T07:38:33;3.00;99.90
41592;DHT22;28026;48.562;14.440;2023-03-08T07:41:04;2.80;99.90
41592;DHT22;28026;48.562;14.440;2023-03-08T07:43:35;2.80;99.90
41592;DHT22;28026;48.562;14.440;2023-03-08T07:46:06;2.90;99.90
41592;DHT22;28026;48.562;14.440;2023-03-08T07:48:37;3.00;99.90
41592;DHT22;28026;48.562;14.440;2023-03-08T07:51:08;3.00;99.90
41592;DHT22;28026;48.562;14.440;2023-03-08T07:53:39;3.00;99.90
41592;DHT22;28026;48.562;14.440;2023-03-08T07:56:10;3.20;99.90
41592;DHT22;28026;48.562;14.440;2023-03-08T07:58:41;3.10;99.90
41592;DHT22;28026;48.562;14.440;2023-03-08T08:01:13;3.50;99.90
41592;DHT22;28026;48.562;14.440;2023-03-08T08:03:44;3.70;99.90
41592;DHT22;28026;48.562;14.440;2023-03-08T08:06:15;4.10;99.90
41592;DHT22;28026;48.562;14.440;2023-03-08T08:08:46;4.50;99.90
41592;DHT22;28026;48.562;14.440;2023-03-08T08:11:17;4.50;99.90
41592;DHT22;28026;48.562;14.440;2023-03-08T08:13:51;4.60;99.90
41592;DHT22;28026;48.562;14.440;2023-03-08T08:16:22;4.30;99.90
41592;DHT22;28026;48.562;14.440;2023-03-08T08:18:56;4.40;99.90
41592;DHT22;28026;48.562;14.440;2023-03-08T08:21:27;4.10;99.90
41592;DHT22;28026;48.562;14.440;2023-03-08T08:23:57;4.10;99.90
41592;DHT22;28026;48.562;14.440;2023-03-08T08:26:29;4.30;99.90
41592;DHT22;28026;48.562;14.440;2023-03-08T08:28:59;4.00;99.90
41592;DHT22;28026;48.562;14.440;2023-03-08T08:31:31;3.80;99.90
41592;DHT22;28026;48.562;14.440;2023-03-08T08:34:02;3.50;99.90
41592;DHT22;28026;48.562;14.440;2023-03-08T08:36:33;3.30;99.90
41592;DHT22;28026;48.562;14.440;2023-03-08T08:39:04;3.30;99.90
41592;DHT22;28026;48.562;14.440;2023-03-08T08:41:35;3.50;99.90
41592;DHT22;28026;48.562;14.440;2023-03-08T08:44:06;3.50;99.90
41592;DHT22;28026;48.562;14.440;2023-03-08T08:46:37;3.40;99.90
41592;DHT22;28026;48.562;14.440;2023-03-08T08:49:09;3.40;99.90
41592;DHT22;28026;48.562;14.440;2023-03-08T08:51:40;3.60;99.90
41592;DHT22;28026;48.562;14.440;2023-03-08T08:54:11;3.50;99.90
41592;DHT22;28026;48.562;14.440;2023-03-08T08:56:42;3.30;99.90
41592;DHT22;28026;48.562;14.440;2023-03-08T08:59:12;3.20;99.90
41592;DHT22;28026;48.562;14.440;2023-03-08T09:01:45;3.10;99.90
41592;DHT22;28026;48.562;14.440;2023-03-08T09:04:16;3.30;99.90
41592;DHT22;28026;48.562;14.440;2023-03-08T09:06:49;3.20;99.90
41592;DHT22;28026;48.562;14.440;2023-03-08T09:09:20;3.30;99.90
41592;DHT22;28026;48.562;14.440;2023-03-08T09:11:51;3.50;99.90
41592;DHT22;28026;48.562;14.440;2023-03-08T09:14:22;3.40;99.90
41592;DHT22;28026;48.562;14.440;2023-03-08T09:16:53;3.30;99.90
41592;DHT22;28026;48.562;14.440;2023-03-08T09:19:24;3.40;99.90
41592;DHT22;28026;48.562;14.440;2023-03-08T09:21:55;3.50;99.90
41592;DHT22;28026;48.562;14.440;2023-03-08T09:24:26;3.60;99.90
41592;DHT22;28026;48.562;14.440;2023-03-08T09:26:57;3.40;99.90
41592;DHT22;28026;48.562;14.440;2023-03-08T09:29:28;3.50;99.90
41592;DHT22;28026;48.562;14.440;2023-03-08T09:31:59;3.60;99.90
41592;DHT22;28026;48.562;14.440;2023-03-08T09:34:30;3.90;99.90
41592;DHT22;28026;48.562;14.440;2023-03-08T09:37:01;4.10;99.90
41592;DHT22;28026;48.562;14.440;2023-03-08T09:39:33;3.70;99.90
41592;DHT22;28026;48.562;14.440;2023-03-08T09:42:04;4.00;99.90
41592;DHT22;28026;48.562;14.440;2023-03-08T09:48:05;4.60;99.90
41592;DHT22;28026;48.562;14.440;2023-03-08T09:50:51;4.90;99.90
41592;DHT22;28026;48.562;14.440;2023-03-08T09:53:38;4.90;99.90
41592;DHT22;28026;48.562;14.440;2023-03-08T09:56:38;5.20;99.90
41592;DHT22;28026;48.562;14.440;2023-03-08T09:59:27;5.60;99.90
41592;DHT22;28026;48.562;14.440;2023-03-08T10:02:29;6.10;99.90
41592;DHT22;28026;48.562;14.440;2023-03-08T10:08:22;6.60;99.90
41592;DHT22;28026;48.562;14.440;2023-03-08T10:13:39;7.00;99.90
41592;DHT22;28026;48.562;14.440;2023-03-08T10:16:30;6.80;99.90
41592;DHT22;28026;48.562;14.440;2023-03-08T10:19:33;7.30;99.90
41592;DHT22;28026;48.562;14.440;2023-03-08T10:22:31;7.30;99.90
41592;DHT22;28026;48.562;14.440;2023-03-08T10:25:22;7.30;99.90
41592;DHT22;28026;48.562;14.440;2023-03-08T10:28:02;7.30;99.90
41592;DHT22;28026;48.562;14.440;2023-03-08T10:30:46;7.20;99.90
41592;DHT22;28026;48.562;14.440;2023-03-08T10:33:32;7.30;99.90
41592;DHT22;28026;48.562;14.440;2023-03-08T10:36:17;7.20;99.90
41592;DHT22;28026;48.562;14.440;2023-03-08T10:39:00;7.10;99.90
41592;DHT22;28026;48.562;14.440;2023-03-08T10:42:11;7.30;99.90
41592;DHT22;28026;48.562;14.440;2023-03-08T10:47:59;6.60;99.90
41592;DHT22;28026;48.562;14.440;2023-03-08T10:50:35;6.40;99.90
41592;DHT22;28026;48.562;14.440;2023-03-08T10:53:09;6.60;99.90
41592;DHT22;28026;48.562;14.440;2023-03-08T10:55:50;6.60;99.90
41592;DHT22;28026;48.562;14.440;2023-03-08T10:58:34;7.10;99.90
41592;DHT22;28026;48.562;14.440;2023-03-08T11:01:29;6.90;99.90
41592;DHT22;28026;48.562;14.440;2023-03-08T11:04:12;6.30;99.90
41592;DHT22;28026;48.562;14.440;2023-03-08T11:06:47;6.40;99.90
41592;DHT22;28026;48.562;14.440;2023-03-08T11:09:26;6.70;99.90
41592;DHT22;28026;48.562;14.440;2023-03-08T11:12:00;6.60;99.90
41592;DHT22;28026;48.562;14.440;2023-03-08T11:14:31;6.60;99.90
41592;DHT22;28026;48.562;14.440;2023-03-08T11:17:04;6.90;99.90
41592;DHT22;28026;48.562;14.440;2023-03-08T11:20:18;7.10;99.90
41592;DHT22;28026;48.562;14.440;2023-03-08T11:23:33;7.40;99.90
41592;DHT22;28026;48.562;14.440;2023-03-08T11:26:37;7.50;99.90
41592;DHT22;28026;48.562;14.440;2023-03-08T11:35:58;7.40;99.90
41592;DHT22;28026;48.562;14.440;2023-03-08T11:39:09;7.40;99.90
41592;DHT22;28026;48.562;14.440;2023-03-08T11:45:29;7.00;99.90
41592;DHT22;28026;48.562;14.440;2023-03-08T11:51:46;6.80;99.90
41592;DHT22;28026;48.562;14.440;2023-03-08T11:57:39;7.00;99.90
41592;DHT22;28026;48.562;14.440;2023-03-08T12:00:36;7.00;99.90
41592;DHT22;28026;48.562;14.440;2023-03-08T12:03:16;6.90;99.90
41592;DHT22;28026;48.562;14.440;2023-03-08T12:06:03;6.90;99.90
41592;DHT22;28026;48.562;14.440;2023-03-08T12:08:57;6.90;99.90
41592;DHT22;28026;48.562;14.440;2023-03-08T12:15:20;6.80;99.90
41592;DHT22;28026;48.562;14.440;2023-03-08T12:21:25;7.00;99.90
41592;DHT22;28026;48.562;14.440;2023-03-08T12:27:19;6.70;99.90
41592;DHT22;28026;48.562;14.440;2023-03-08T12:33:18;6.50;99.90
41592;DHT22;28026;48.562;14.440;2023-03-08T12:36:08;6.50;99.90
41592;DHT22;28026;48.562;14.440;2023-03-08T12:38:42;6.60;99.90
41592;DHT22;28026;48.562;14.440;2023-03-08T12:44:06;6.80;99.90
41592;DHT22;28026;48.562;14.440;2023-03-08T12:47:00;6.70;99.90
41592;DHT22;28026;48.562;14.440;2023-03-08T12:49:51;6.90;99.90
41592;DHT22;28026;48.562;14.440;2023-03-08T12:52:31;6.90;99.90
41592;DHT22;28026;48.562;14.440;2023-03-08T12:55:19;7.00;99.90
41592;DHT22;28026;48.562;14.440;2023-03-08T12:58:02;6.80;99.90
41592;DHT22;28026;48.562;14.440;2023-03-08T13:00:35;6.80;99.90
41592;DHT22;28026;48.562;14.440;2023-03-08T13:05:42;6.70;99.90
41592;DHT22;28026;48.562;14.440;2023-03-08T13:08:38;6.80;99.90
41592;DHT22;28026;48.562;14.440;2023-03-08T13:11:13;7.10;99.90
41592;DHT22;28026;48.562;14.440;2023-03-08T13:13:55;6.90;99.90
41592;DHT22;28026;48.562;14.440;2023-03-08T13:16:34;6.90;99.90
41592;DHT22;28026;48.562;14.440;2023-03-08T13:19:17;6.90;99.90
41592;DHT22;28026;48.562;14.440;2023-03-08T13:22:37;7.00;99.90
41592;DHT22;28026;48.562;14.440;2023-03-08T13:28:39;7.00;99.90
41592;DHT22;28026;48.562;14.440;2023-03-08T13:33:53;7.00;99.90
41592;DHT22;28026;48.562;14.440;2023-03-08T13:36:29;6.70;99.90
41592;DHT22;28026;48.562;14.440;2023-03-08T13:39:06;6.50;99.90
41592;DHT22;28026;48.562;14.440;2023-03-08T13:41:48;6.30;99.90
41592;DHT22;28026;48.562;14.440;2023-03-08T13:44:23;6.60;99.90
41592;DHT22;28026;48.562;14.440;2023-03-08T13:47:01;6.70;99.90
41592;DHT22;28026;48.562;14.440;2023-03-08T13:49:54;6.90;99.90
41592;DHT22;28026;48.562;14.440;2023-03-08T13:52:32;7.00;99.90
41592;DHT22;28026;48.562;14.440;2023-03-08T13:55:13;7.10;99.90
41592;DHT22;28026;48.562;14.440;2023-03-08T13:57:51;7.20;99.90
41592;DHT22;28026;48.562;14.440;2023-03-08T14:00:31;7.30;99.90
41592;DHT22;28026;48.562;14.440;2023-03-08T14:03:05;7.10;99.90
41592;DHT22;28026;48.562;14.440;2023-03-08T14:05:41;7.10;99.90
41592;DHT22;28026;48.562;14.440;2023-03-08T14:08:19;7.20;99.90
41592;DHT22;28026;48.562;14.440;2023-03-08T14:11:02;7.20;99.90
41592;DHT22;28026;48.562;14.440;2023-03-08T14:13:38;7.00;99.90
41592;DHT22;28026;48.562;14.440;2023-03-08T14:16:26;6.90;99.90
41592;DHT22;28026;48.562;14.440;2023-03-08T14:24:58;6.60;99.90
41592;DHT22;28026;48.562;14.440;2023-03-08T14:27:42;6.50;99.90
41592;DHT22;28026;48.562;14.440;2023-03-08T14:30:17;6.50;99.90
41592;DHT22;28026;48.562;14.440;2023-03-08T14:33:05;6.40;99.90
41592;DHT22;28026;48.562;14.440;2023-03-08T14:35:55;6.50;99.90
41592;DHT22;28026;48.562;14.440;2023-03-08T14:38:32;6.50;99.90
41592;DHT22;28026;48.562;14.440;2023-03-08T14:41:04;6.40;99.90
41592;DHT22;28026;48.562;14.440;2023-03-08T14:43:35;6.50;99.90
41592;DHT22;28026;48.562;14.440;2023-03-08T14:46:13;6.40;99.90
41592;DHT22;28026;48.562;14.440;2023-03-08T14:48:57;6.40;99.90
41592;DHT22;28026;48.562;14.440;2023-03-08T14:51:38;6.20;99.90
41592;DHT22;28026;48.562;14.440;2023-03-08T14:54:29;6.10;99.90
41592;DHT22;28026;48.562;14.440;2023-03-08T14:57:23;6.20;99.90
41592;DHT22;28026;48.562;14.440;2023-03-08T15:00:06;6.20;99.90
41592;DHT22;28026;48.562;14.440;2023-03-08T15:02:44;6.30;99.90
41592;DHT22;28026;48.562;14.440;2023-03-08T15:05:17;6.30;99.90
41592;DHT22;28026;48.562;14.440;2023-03-08T15:07:51;6.20;99.90
41592;DHT22;28026;48.562;14.440;2023-03-08T15:10:34;6.30;99.90
41592;DHT22;28026;48.562;14.440;2023-03-08T15:13:14;6.00;99.90
41592;DHT22;28026;48.562;14.440;2023-03-08T15:15:51;6.10;99.90
41592;DHT22;28026;48.562;14.440;2023-03-08T15:18:22;6.10;99.90
41592;DHT22;28026;48.562;14.440;2023-03-08T15:20:53;5.90;99.90
41592;DHT22;28026;48.562;14.440;2023-03-08T15:23:26;5.80;99.90
41592;DHT22;28026;48.562;14.440;2023-03-08T15:26:04;5.80;99.90
41592;DHT22;28026;48.562;14.440;2023-03-08T15:28:36;5.80;99.90
41592;DHT22;28026;48.562;14.440;2023-03-08T15:31:07;5.90;99.90
41592;DHT22;28026;48.562;14.440;2023-03-08T15:33:38;5.80;99.90
41592;DHT22;28026;48.562;14.440;2023-03-08T15:36:16;5.80;99.90
41592;DHT22;28026;48.562;14.440;2023-03-08T15:38:48;5.90;99.90
41592;DHT22;28026;48.562;14.440;2023-03-08T15:41:19;5.90;99.90
41592;DHT22;28026;48.562;14.440;2023-03-08T15:43:50;5.90;99.90
41592;DHT22;28026;48.562;14.440;2023-03-08T15:46:23;6.00;99.90
41592;DHT22;28026;48.562;14.440;2023-03-08T15:48:54;6.00;99.90
41592;DHT22;28026;48.562;14.440;2023-03-08T15:51:29;5.90;99.90
41592;DHT22;28026;48.562;14.440;2023-03-08T15:54:05;6.00;99.90
41592;DHT22;28026;48.562;14.440;2023-03-08T15:56:36;5.70;99.90
41592;DHT22;28026;48.562;14.440;2023-03-08T15:59:07;5.70;99.90
41592;DHT22;28026;48.562;14.440;2023-03-08T16:01:38;5.70;99.90
41592;DHT22;28026;48.562;14.440;2023-03-08T16:04:09;5.40;99.90
41592;DHT22;28026;48.562;14.440;2023-03-08T16:06:40;5.50;99.90
41592;DHT22;28026;48.562;14.440;2023-03-08T16:09:13;5.50;99.90
41592;DHT22;28026;48.562;14.440;2023-03-08T16:11:43;5.40;99.90
41592;DHT22;28026;48.562;14.440;2023-03-08T16:14:14;5.40;99.90
41592;DHT22;28026;48.562;14.440;2023-03-08T16:16:47;5.50;99.90
41592;DHT22;28026;48.562;14.440;2023-03-08T16:19:18;5.50;99.90
41592;DHT22;28026;48.562;14.440;2023-03-08T16:21:49;5.40;99.90
41592;DHT22;28026;48.562;14.440;2023-03-08T16:24:21;5.30;99.90
41592;DHT22;28026;48.562;14.440;2023-03-08T16:26:52;5.40;99.90
41592;DHT22;28026;48.562;14.440;2023-03-08T16:29:23;5.30;99.90
41592;DHT22;28026;48.562;14.440;2023-03-08T16:31:55;5.30;99.90
41592;DHT22;28026;48.562;14.440;2023-03-08T16:34:28;5.30;99.90
41592;DHT22;28026;48.562;14.440;2023-03-08T16:37:00;5.30;99.90
41592;DHT22;28026;48.562;14.440;2023-03-08T16:39:31;5.20;99.90
41592;DHT22;28026;48.562;14.440;2023-03-08T16:42:01;5.20;99.90
41592;DHT22;28026;48.562;14.440;2023-03-08T16:44:32;5.10;99.90
41592;DHT22;28026;48.562;14.440;2023-03-08T16:47:03;5.20;99.90
41592;DHT22;28026;48.562;14.440;2023-03-08T16:49:35;4.90;99.90
41592;DHT22;28026;48.562;14.440;2023-03-08T16:52:06;4.70;99.90
41592;DHT22;28026;48.562;14.440;2023-03-08T16:54:37;4.70;99.90
41592;DHT22;28026;48.562;14.440;2023-03-08T16:57:15;4.80;99.90
41592;DHT22;28026;48.562;14.440;2023-03-08T16:59:47;4.80;99.90
41592;DHT22;28026;48.562;14.440;2023-03-08T17:02:19;4.50;99.90
41592;DHT22;28026;48.562;14.440;2023-03-08T17:04:51;4.50;99.90
41592;DHT22;28026;48.562;14.440;2023-03-08T17:07:22;4.60;99.90
41592;DHT22;28026;48.562;14.440;2023-03-08T17:09:52;4.60;99.90
41592;DHT22;28026;48.562;14.440;2023-03-08T17:12:24;4.70;99.90
41592;DHT22;28026;48.562;14.440;2023-03-08T17:14:55;4.60;99.90
41592;DHT22;28026;48.562;14.440;2023-03-08T17:17:26;4.60;99.90
41592;DHT22;28026;48.562;14.440;2023-03-08T17:19:57;4.20;99.90
41592;DHT22;28026;48.562;14.440;2023-03-08T17:22:29;4.20;99.90